Accueil
METAR-TAF:

METAR-TAF

Aéroports :

Peer, Belgique

Base aérienne de Kleine-Brogel

latitude: 51-10N, longitude: 005-28E, altitude: 55 m

Observation

Le bulletin a été fait il y a 18 minutes, à 07:55 UTC
Vent 14 kt de sud-ouest
Température 10°C
Humidité 93%
Pression 1010 hPa
Visibilité 10 km ou plus

METAR: EBBL 220755Z AUTO 22014KT 9999 OVC010/// 10/09 Q1010 GRN

Heure: 10:13 (08:13 UTC)


TAF: absent

Observations et prévisions météorologiques de plus de 4000 aéroports (messages METAR et TAF).

Les stations disponibles sont représentées par des disques jaunes et rouges sur la carte.

Passer la souris dessus pour voir le nom de la station.

Cliquer dessus pour voir les observations et prévisions météorologiques.

Pour changer de carte: cliquez sur les boutons verts avec une croix noire pour zoomer, sur le bouton vert avec un tiret pour effectuer un zoom arrière, ou sur les flèches vertes pour les cartes adjacentes.


METAR-TAF: